Time;durP1;ratioP1;P1;durP2;ratioP2;P2;SDS_P1;SDS_P2;PMS_P1;PMS_P2;Temp;Humidity;BMP_temperature;BMP_pressure;BME280_temperature;BME280_humidity;BME280_pressure;Samples;Min_cycle;Max_cycle;Signal;HPM_P1;HPM_P2
2021/03/14 00:01:09;;;;;;;2.58;0.90;;;;;;;-145.12;100.00;63763.75;341521;28;71344;-80
2021/03/14 00:02:19;;;;;;;4.55;0.80;;;;;;;-145.12;100.00;63763.75;343089;28;71362;-79
2021/03/14 00:03:29;;;;;;;2.17;0.68;;;;;;;-145.12;100.00;63763.75;340329;28;71547;-78
2021/03/14 00:04:40;;;;;;;2.47;0.80;;;;;;;-145.12;100.00;63763.75;341018;28;72976;-79
2021/03/14 00:05:51;;;;;;;2.20;0.80;;;;;;;-145.12;100.00;63763.75;340450;28;70586;-80
2021/03/14 00:07:01;;;;;;;3.45;0.88;;;;;;;-145.12;100.00;63763.75;340530;28;70699;-77
2021/03/14 00:08:12;;;;;;;3.38;0.85;;;;;;;-145.12;100.00;63763.75;341395;28;69950;-78
2021/03/14 00:09:23;;;;;;;4.15;0.90;;;;;;;-145.12;100.00;63763.75;341326;28;74802;-77
2021/03/14 00:10:33;;;;;;;2.20;0.70;;;;;;;-145.12;100.00;63763.75;340502;28;71122;-78
2021/03/14 00:11:45;;;;;;;4.20;1.20;;;;;;;-145.12;100.00;63763.75;341134;28;93648;-82
2021/03/14 00:12:54;;;;;;;2.78;0.60;;;;;;;-145.12;100.00;63763.75;341662;28;70480;-82
2021/03/14 00:14:04;;;;;;;3.92;0.90;;;;;;;-145.12;100.00;63763.75;340240;28;70164;-78
2021/03/14 00:15:14;;;;;;;6.00;1.00;;;;;;;-145.12;100.00;63763.75;341292;28;94482;-80
2021/03/14 00:16:24;;;;;;;3.20;1.05;;;;;;;-145.12;100.00;63763.75;341704;28;71039;-81
2021/03/14 00:17:34;;;;;;;5.90;1.15;;;;;;;-145.12;100.00;63763.75;340669;28;71449;-79
2021/03/14 00:18:44;;;;;;;3.08;0.88;;;;;;;-145.12;100.00;63763.75;340729;28;71344;-70
2021/03/14 00:19:54;;;;;;;2.35;0.95;;;;;;;-145.12;100.00;63763.75;340550;28;70406;-78
2021/03/14 00:21:07;;;;;;;3.35;1.00;;;;;;;-145.12;100.00;63763.75;340408;28;70968;-78
2021/03/14 00:22:17;;;;;;;4.00;1.10;;;;;;;-145.12;100.00;63763.75;341946;28;71718;-78
2021/03/14 00:23:27;;;;;;;4.32;1.10;;;;;;;-145.12;100.00;63763.75;340496;28;72034;-76
2021/03/14 00:24:37;;;;;;;5.63;1.13;;;;;;;-145.12;100.00;63763.75;340859;28;70208;-77
2021/03/14 00:25:46;;;;;;;3.72;1.08;;;;;;;-145.12;100.00;63763.75;341463;28;70112;-77
2021/03/14 00:26:56;;;;;;;6.60;1.38;;;;;;;-145.12;100.00;63763.75;340538;28;70997;-79
2021/03/14 00:28:10;;;;;;;6.78;1.38;;;;;;;-145.12;100.00;63763.75;342776;28;71138;-79
2021/03/14 00:29:21;;;;;;;7.93;1.13;;;;;;;-145.12;100.00;63763.75;340246;28;70154;-78
2021/03/14 00:30:31;;;;;;;7.55;1.45;;;;;;;-145.12;100.00;63763.75;340447;28;71413;-79
2021/03/14 00:31:43;;;;;;;5.93;0.85;;;;;;;-145.12;100.00;63763.75;340258;28;71350;-78
2021/03/14 00:32:56;;;;;;;5.25;1.10;;;;;;;-145.12;100.00;63763.75;340386;28;71587;-78
2021/03/14 00:34:06;;;;;;;6.30;0.98;;;;;;;-145.12;100.00;63763.75;340663;28;71387;-77
2021/03/14 00:35:17;;;;;;;5.38;0.80;;;;;;;-145.12;100.00;63763.75;343056;28;71676;-76
2021/03/14 00:36:26;;;;;;;6.63;1.17;;;;;;;-145.12;100.00;63763.75;341264;28;70702;-75
2021/03/14 00:37:36;;;;;;;5.55;1.10;;;;;;;-145.12;100.00;63763.75;341736;28;70749;-78
2021/03/14 00:39:01;;;;;;;5.75;1.30;;;;;;;-145.12;100.00;63763.75;340052;28;91233;-76
2021/03/14 00:40:10;;;;;;;5.63;1.10;;;;;;;-145.12;100.00;63763.75;341839;28;70548;-74
2021/03/14 00:41:21;;;;;;;3.58;0.88;;;;;;;-145.12;100.00;63763.75;340421;28;71500;-78
2021/03/14 00:42:36;;;;;;;5.00;1.40;;;;;;;-145.12;100.00;63763.75;341791;28;71521;-77
2021/03/14 00:43:46;;;;;;;6.85;1.40;;;;;;;-145.12;100.00;63763.75;340394;28;69734;-77
2021/03/14 00:44:55;;;;;;;4.80;1.10;;;;;;;-145.12;100.00;63763.75;340328;28;70282;-77
2021/03/14 00:46:07;;;;;;;5.63;1.15;;;;;;;-145.12;100.00;63763.75;341626;28;71566;-81
2021/03/14 00:47:17;;;;;;;7.30;1.30;;;;;;;-145.12;100.00;63763.75;342914;28;70949;-76
2021/03/14 00:48:26;;;;;;;6.90;1.60;;;;;;;-145.12;100.00;63763.75;341033;28;70663;-78
2021/03/14 00:49:37;;;;;;;7.97;1.50;;;;;;;-145.12;100.00;63763.75;341562;28;70968;-78
2021/03/14 00:50:46;;;;;;;6.10;1.20;;;;;;;-145.12;100.00;63763.75;340398;28;71282;-77
2021/03/14 00:51:56;;;;;;;7.80;1.60;;;;;;;-145.12;100.00;63763.75;341088;28;71255;-77
2021/03/14 00:53:06;;;;;;;8.85;1.30;;;;;;;-145.12;100.00;63763.75;340389;28;71483;-78
2021/03/14 00:54:16;;;;;;;8.95;1.52;;;;;;;-145.12;100.00;63763.75;340238;28;70221;-78
2021/03/14 00:55:25;;;;;;;12.10;1.60;;;;;;;-145.12;100.00;63763.75;341793;28;70524;-77
2021/03/14 00:56:35;;;;;;;7.90;1.75;;;;;;;-145.12;100.00;63763.75;340395;28;71474;-79
2021/03/14 00:57:46;;;;;;;12.40;1.50;;;;;;;-145.12;100.00;63763.75;341464;28;70826;-78
2021/03/14 00:58:55;;;;;;;9.07;1.58;;;;;;;-145.12;100.00;63763.75;341758;28;70231;-78
2021/03/14 01:00:06;;;;;;;7.44;1.40;;;;;;;-145.12;100.00;63763.75;340057;28;94700;-78
2021/03/14 01:01:16;;;;;;;8.70;1.60;;;;;;;-145.12;100.00;63763.75;341783;28;69088;-79
2021/03/14 01:02:25;;;;;;;8.43;1.50;;;;;;;-145.12;100.00;63763.75;340445;28;71844;-79
2021/03/14 01:03:35;;;;;;;7.90;1.22;;;;;;;-145.12;100.00;63763.75;339560;28;94491;-79
2021/03/14 01:04:45;;;;;;;6.03;1.30;;;;;;;-145.12;100.00;63763.75;340454;28;71534;-77
2021/03/14 01:05:54;;;;;;;10.18;1.60;;;;;;;-145.12;100.00;63763.75;340785;28;71670;-78
2021/03/14 01:07:04;;;;;;;9.43;1.83;;;;;;;-145.12;100.00;63763.75;340408;28;71372;-78
2021/03/14 01:08:17;;;;;;;10.70;1.80;;;;;;;-145.12;100.00;63763.75;340418;28;70577;-78
2021/03/14 01:09:27;;;;;;;9.90;1.77;;;;;;;-145.12;100.00;63763.75;341721;28;70673;-78
2021/03/14 01:10:36;;;;;;;9.40;1.60;;;;;;;-145.12;100.00;63763.75;340406;28;70771;-78
2021/03/14 01:11:46;;;;;;;8.73;1.80;;;;;;;-145.12;100.00;63763.75;341465;28;71620;-78
2021/03/14 01:12:55;;;;;;;5.95;1.38;;;;;;;-145.12;100.00;63763.75;341552;28;71237;-78
2021/03/14 01:14:05;;;;;;;7.22;1.38;;;;;;;-145.12;100.00;63763.75;340349;28;70658;-77
2021/03/14 01:15:15;;;;;;;9.95;1.70;;;;;;;-145.12;100.00;63763.75;341082;28;69030;-77
2021/03/14 01:16:26;;;;;;;8.65;1.52;;;;;;;-145.12;100.00;63763.75;340349;28;71355;-77
2021/03/14 01:17:38;;;;;;;10.07;1.70;;;;;;;-145.12;100.00;63763.75;341650;28;70773;-77
2021/03/14 01:18:48;;;;;;;5.18;1.30;;;;;;;-145.12;100.00;63763.75;340981;28;71244;-77
2021/03/14 01:19:58;;;;;;;8.88;1.70;;;;;;;-145.12;100.00;63763.75;340377;28;71091;-77
2021/03/14 01:21:09;;;;;;;5.97;1.33;;;;;;;-145.12;100.00;63763.75;340424;28;70672;-77
2021/03/14 01:22:18;;;;;;;6.55;1.55;;;;;;;-145.12;100.00;63763.75;340284;28;70444;-75
2021/03/14 01:23:28;;;;;;;12.13;2.00;;;;;;;-145.12;100.00;63763.75;341638;28;71638;-77
2021/03/14 01:24:37;;;;;;;8.27;1.70;;;;;;;-145.12;100.00;63763.75;341473;28;71384;-76
2021/03/14 01:25:48;;;;;;;7.70;1.60;;;;;;;-145.12;100.00;63763.75;340295;28;75181;-77
2021/03/14 01:26:58;;;;;;;12.88;2.00;;;;;;;-145.12;100.00;63763.75;341565;28;71372;-77
2021/03/14 01:28:07;;;;;;;10.45;1.85;;;;;;;-145.12;100.00;63763.75;340386;28;70485;-77
2021/03/14 01:29:17;;;;;;;7.82;1.50;;;;;;;-145.12;100.00;63763.75;340904;28;74711;-77
2021/03/14 01:30:26;;;;;;;8.02;1.67;;;;;;;-145.12;100.00;63763.75;340946;28;71292;-76
2021/03/14 01:31:36;;;;;;;10.90;1.67;;;;;;;-145.12;100.00;63763.75;340261;28;70778;-76
2021/03/14 01:32:47;;;;;;;9.98;1.90;;;;;;;-145.12;100.00;63763.75;341582;28;71171;-76
2021/03/14 01:34:00;;;;;;;10.63;2.05;;;;;;;-145.12;100.00;63763.75;341682;28;69691;-77
2021/03/14 01:35:10;;;;;;;8.00;1.67;;;;;;;-145.12;100.00;63763.75;341539;28;71143;-76
2021/03/14 01:36:20;;;;;;;8.52;1.75;;;;;;;-145.12;100.00;63763.75;339847;28;94410;-76
2021/03/14 01:37:32;;;;;;;7.72;1.92;;;;;;;-145.12;100.00;63763.75;340378;28;71482;-74
2021/03/14 01:38:42;;;;;;;9.75;2.10;;;;;;;-145.12;100.00;63763.75;340721;28;98138;-76
2021/03/14 01:39:52;;;;;;;8.07;1.70;;;;;;;-145.12;100.00;63763.75;341028;28;70812;-76
2021/03/14 01:41:05;;;;;;;11.77;2.00;;;;;;;-145.12;100.00;63763.75;341214;28;70670;-72
2021/03/14 01:42:23;;;;;;;13.73;1.77;;;;;;;-145.12;100.00;63763.75;341013;28;71207;-76
2021/03/14 01:43:36;;;;;;;9.27;1.70;;;;;;;-145.12;100.00;63763.75;340411;28;70753;-75
2021/03/14 01:44:50;;;;;;;11.40;1.65;;;;;;;-145.12;100.00;63763.75;340827;28;71712;-75
2021/03/14 01:46:04;;;;;;;12.35;1.98;;;;;;;-145.12;100.00;63763.75;340363;28;71885;-75
2021/03/14 01:47:15;;;;;;;13.10;2.10;;;;;;;-145.12;100.00;63763.75;340422;28;69693;-75
2021/03/14 01:48:38;;;;;;;12.07;1.70;;;;;;;-145.12;100.00;63763.75;339545;28;94494;-74
2021/03/14 01:49:49;;;;;;;9.93;1.77;;;;;;;-145.12;100.00;63763.75;340362;28;68766;-75
2021/03/14 01:51:03;;;;;;;7.85;1.52;;;;;;;-145.12;100.00;63763.75;340511;28;69979;-75
2021/03/14 01:52:13;;;;;;;9.43;1.33;;;;;;;-145.12;100.00;63763.75;341539;28;70607;-74
2021/03/14 01:53:22;;;;;;;9.88;1.77;;;;;;;-145.12;100.00;63763.75;341611;28;69640;-75
2021/03/14 01:54:33;;;;;;;10.30;1.96;;;;;;;-145.12;100.00;63763.75;340691;28;93902;-76
2021/03/14 01:55:48;;;;;;;10.30;1.80;;;;;;;-145.12;100.00;63763.75;339920;28;94635;-76
2021/03/14 01:56:59;;;;;;;8.77;1.98;;;;;;;-145.12;100.00;63763.75;341479;28;68854;-75
2021/03/14 01:58:10;;;;;;;12.80;2.10;;;;;;;-145.12;100.00;63763.75;341647;28;71464;-74
2021/03/14 01:59:20;;;;;;;10.55;1.90;;;;;;;-145.12;100.00;63763.75;341066;28;69676;-76
2021/03/14 02:00:45;;;;;;;6.55;1.20;;;;;;;-145.12;100.00;63763.75;341131;28;70296;-75
2021/03/14 02:01:55;;;;;;;11.45;2.25;;;;;;;-145.12;100.00;63763.75;341722;28;71283;-75
2021/03/14 02:03:07;;;;;;;10.40;1.98;;;;;;;-145.12;100.00;63763.75;341660;28;71767;-76
2021/03/14 02:04:22;;;;;;;11.52;1.83;;;;;;;-145.12;100.00;63763.75;339964;28;69021;-76
2021/03/14 02:05:32;;;;;;;15.55;2.10;;;;;;;-145.12;100.00;63763.75;341413;28;70716;-76
2021/03/14 02:06:49;;;;;;;12.50;2.10;;;;;;;-145.12;100.00;63763.75;338955;29;70477;-75
2021/03/14 02:08:08;;;;;;;12.75;2.00;;;;;;;-145.12;100.00;63763.75;340884;28;70726;-76
2021/03/14 02:09:24;;;;;;;6.10;1.40;;;;;;;-145.12;100.00;63763.75;340906;28;70739;-76
2021/03/14 02:10:34;;;;;;;11.45;1.67;;;;;;;-145.12;100.00;63763.75;342958;28;70744;-75
2021/03/14 02:11:46;;;;;;;7.85;1.77;;;;;;;-145.12;100.00;63763.75;342832;28;71313;-75
2021/03/14 02:13:01;;;;;;;6.35;1.70;;;;;;;-145.12;100.00;63763.75;341490;28;70238;-75
2021/03/14 02:14:13;;;;;;;9.32;2.00;;;;;;;-145.12;100.00;63763.75;340379;28;70786;-75
2021/03/14 02:15:24;;;;;;;11.18;1.67;;;;;;;-145.12;100.00;63763.75;340753;28;71502;-75
2021/03/14 02:16:41;;;;;;;6.13;1.30;;;;;;;-145.12;100.00;63763.75;340374;28;69022;-75
2021/03/14 02:18:00;;;;;;;8.75;1.73;;;;;;;-145.12;100.00;63763.75;341068;28;71445;-74
2021/03/14 02:19:21;;;;;;;9.90;1.95;;;;;;;-145.12;100.00;63763.75;340172;28;71566;-74
2021/03/14 02:20:33;;;;;;;7.32;1.50;;;;;;;-145.12;100.00;63763.75;341317;28;70375;-74
2021/03/14 02:21:49;;;;;;;10.23;2.10;;;;;;;-145.12;100.00;63763.75;338917;29;71320;-75
2021/03/14 02:23:06;;;;;;;10.70;1.60;;;;;;;-145.12;100.00;63763.75;340109;28;70914;-75
2021/03/14 02:24:53;;;;;;;8.25;1.77;;;;;;;-145.12;100.00;63763.75;341059;28;70911;-76
2021/03/14 02:26:11;;;;;;;7.07;1.30;;;;;;;-145.12;100.00;63763.75;340092;28;74005;-75
2021/03/14 02:27:30;;;;;;;9.55;1.77;;;;;;;-145.12;100.00;63763.75;341167;28;73082;-75
2021/03/14 02:28:45;;;;;;;7.93;1.63;;;;;;;-145.12;100.00;63763.75;341466;28;72601;-76
2021/03/14 02:29:58;;;;;;;15.30;2.47;;;;;;;-145.12;100.00;63763.75;340229;28;72421;-73
2021/03/14 02:31:08;;;;;;;8.02;1.73;;;;;;;-145.12;100.00;63763.75;341484;28;71488;-75
2021/03/14 02:32:25;;;;;;;7.50;1.52;;;;;;;-145.12;100.00;63763.75;341457;28;70288;-74
2021/03/14 02:33:41;;;;;;;9.77;2.10;;;;;;;-145.12;100.00;63763.75;341493;28;74285;-75
2021/03/14 02:35:01;;;;;;;11.73;1.73;;;;;;;-145.12;100.00;63763.75;341145;28;71980;-74
2021/03/14 02:36:13;;;;;;;12.30;1.95;;;;;;;-145.12;100.00;63763.75;341279;28;71978;-74
2021/03/14 02:37:41;;;;;;;13.43;1.95;;;;;;;-145.12;100.00;63763.75;340314;28;68180;-74
2021/03/14 02:38:58;;;;;;;11.88;1.88;;;;;;;-145.12;100.00;63763.75;341141;28;70428;-75
2021/03/14 02:40:12;;;;;;;13.60;1.60;;;;;;;-145.12;100.00;63763.75;341581;28;75224;-75
2021/03/14 02:41:28;;;;;;;9.13;1.80;;;;;;;-145.12;100.00;63763.75;340289;28;71184;-75
2021/03/14 02:42:39;;;;;;;8.48;1.52;;;;;;;-145.12;100.00;63763.75;340092;28;71467;-75
2021/03/14 02:43:51;;;;;;;10.26;1.54;;;;;;;-145.12;100.00;63763.75;340670;28;95403;-75
2021/03/14 02:45:04;;;;;;;10.25;2.30;;;;;;;-145.12;100.00;63763.75;341613;28;71774;-75
2021/03/14 02:46:18;;;;;;;10.68;2.28;;;;;;;-145.12;100.00;63763.75;341513;28;71850;-74
2021/03/14 02:47:32;;;;;;;10.95;2.00;;;;;;;-145.12;100.00;63763.75;341582;28;70259;-74
2021/03/14 02:48:48;;;;;;;14.20;2.30;;;;;;;-145.12;100.00;63763.75;341779;28;70380;-74
2021/03/14 02:49:58;;;;;;;17.95;2.30;;;;;;;-145.12;100.00;63763.75;341431;28;66951;-73
2021/03/14 02:51:12;;;;;;;14.77;2.40;;;;;;;-145.12;100.00;63763.75;342968;28;70852;-71
2021/03/14 02:52:27;;;;;;;10.23;2.08;;;;;;;-145.12;100.00;63763.75;340546;28;69009;-74
2021/03/14 02:53:37;;;;;;;12.76;2.12;;;;;;;-145.12;100.00;63763.75;340823;28;93749;-73
2021/03/14 02:54:52;;;;;;;7.38;1.30;;;;;;;-145.12;100.00;63763.75;340568;28;70107;-74
2021/03/14 02:56:03;;;;;;;12.75;2.13;;;;;;;-145.12;100.00;63763.75;340492;28;70713;-74
2021/03/14 02:57:14;;;;;;;9.73;1.60;;;;;;;-145.12;100.00;63763.75;341849;28;71705;-73
2021/03/14 02:58:24;;;;;;;12.25;2.10;;;;;;;-145.12;100.00;63763.75;341852;28;70786;-73
2021/03/14 02:59:41;;;;;;;14.35;2.30;;;;;;;-145.12;100.00;63763.75;340575;28;65746;-73
2021/03/14 03:00:56;;;;;;;7.22;1.84;;;;;;;-145.12;100.00;63763.75;341565;28;74540;-74
2021/03/14 03:02:07;;;;;;;10.93;1.73;;;;;;;-145.12;100.00;63763.75;342939;28;70043;-74
2021/03/14 03:03:22;;;;;;;14.20;2.30;;;;;;;-145.12;100.00;63763.75;342451;28;55524;-74
2021/03/14 03:04:34;;;;;;;11.02;2.05;;;;;;;-145.12;100.00;63763.75;340555;28;71424;-72
2021/03/14 03:05:47;;;;;;;12.50;2.15;;;;;;;-145.12;100.00;63763.75;341941;28;69472;-74
2021/03/14 03:07:03;;;;;;;10.35;1.88;;;;;;;-145.12;100.00;63763.75;340549;28;71458;-73
2021/03/14 03:08:22;;;;;;;13.07;2.17;;;;;;;-145.12;100.00;63763.75;341265;28;70624;-75
2021/03/14 03:09:33;;;;;;;12.90;2.35;;;;;;;-145.12;100.00;63763.75;340500;28;71526;-74
2021/03/14 03:10:46;;;;;;;13.77;2.30;;;;;;;-145.12;100.00;63763.75;341854;28;71579;-75
2021/03/14 03:12:03;;;;;;;10.98;2.08;;;;;;;-145.12;100.00;63763.75;341909;28;71496;-75
2021/03/14 03:13:23;;;;;;;17.38;2.53;;;;;;;-145.12;100.00;63763.75;342878;28;70393;-73
2021/03/14 03:14:38;;;;;;;13.38;2.20;;;;;;;-145.12;100.00;63763.75;339790;28;71046;-73
2021/03/14 03:15:55;;;;;;;16.27;2.47;;;;;;;-145.12;100.00;63763.75;341616;28;69494;-71
2021/03/14 03:17:09;;;;;;;13.07;2.42;;;;;;;-145.12;100.00;63763.75;340334;28;71146;-73
2021/03/14 03:18:24;;;;;;;10.98;2.22;;;;;;;-145.12;100.00;63763.75;340032;28;69406;-74
2021/03/14 03:19:41;;;;;;;17.13;2.60;;;;;;;-145.12;100.00;63763.75;341556;28;70643;-74
2021/03/14 03:20:56;;;;;;;13.20;2.42;;;;;;;-145.12;100.00;63763.75;341075;28;74245;-75
2021/03/14 03:22:08;;;;;;;13.80;2.70;;;;;;;-145.12;100.00;63763.75;341332;28;71380;-75
2021/03/14 03:23:17;;;;;;;8.52;1.58;;;;;;;-145.12;100.00;63763.75;341827;28;69412;-74
2021/03/14 03:24:28;;;;;;;12.75;2.15;;;;;;;-145.12;100.00;63763.75;341680;28;70292;-70
2021/03/14 03:25:38;;;;;;;11.88;1.92;;;;;;;-145.12;100.00;63763.75;341653;28;71492;-74
2021/03/14 03:26:55;;;;;;;12.77;2.53;;;;;;;-145.12;100.00;63763.75;340500;28;69146;-74
2021/03/14 03:28:17;;;;;;;13.43;2.20;;;;;;;-145.12;100.00;63763.75;340916;28;94928;-72
2021/03/14 03:29:30;;;;;;;14.18;2.80;;;;;;;-145.12;100.00;63763.75;341058;28;69509;-73
2021/03/14 03:30:47;;;;;;;12.68;2.70;;;;;;;-145.12;100.00;63763.75;341904;28;70949;-72
2021/03/14 03:31:59;;;;;;;13.02;2.30;;;;;;;-145.12;100.00;63763.75;341742;28;71548;-71
2021/03/14 03:33:17;;;;;;;15.13;2.55;;;;;;;-145.12;100.00;63763.75;341133;28;70821;-72
2021/03/14 03:34:33;;;;;;;16.40;2.97;;;;;;;-145.12;100.00;63763.75;341283;28;70769;-74
2021/03/14 03:35:46;;;;;;;13.00;2.58;;;;;;;-145.12;100.00;63763.75;340298;28;70830;-69
2021/03/14 03:37:01;;;;;;;12.70;2.15;;;;;;;-145.12;100.00;63763.75;339490;28;93903;-72
2021/03/14 03:38:21;;;;;;;14.95;2.80;;;;;;;-145.12;100.00;63763.75;342144;28;71379;-72
2021/03/14 03:39:36;;;;;;;12.90;2.30;;;;;;;-145.12;100.00;63763.75;341618;28;69631;-71
2021/03/14 03:40:47;;;;;;;15.55;2.70;;;;;;;-145.12;100.00;63763.75;341592;28;70918;-72
2021/03/14 03:42:03;;;;;;;12.70;2.00;;;;;;;-145.12;100.00;63763.75;340972;28;94406;-68
2021/03/14 03:43:23;;;;;;;13.30;2.35;;;;;;;-145.12;100.00;63763.75;340346;28;71292;-69
2021/03/14 03:44:38;;;;;;;13.23;2.65;;;;;;;-145.12;100.00;63763.75;340506;28;70705;-71
2021/03/14 03:46:06;;;;;;;;;;;;;;;;;;;;;
2021/03/14 03:47:23;;;;;;;14.73;2.38;;;;;;;-145.12;100.00;63763.75;340372;28;72521;-71
2021/03/14 03:48:51;;;;;;;16.05;2.45;;;;;;;-145.12;100.00;63763.75;341374;28;70835;-71
2021/03/14 03:50:06;;;;;;;12.15;2.00;;;;;;;-145.12;100.00;63763.75;339705;28;95331;-73
2021/03/14 03:51:29;;;;;;;15.56;2.68;;;;;;;-145.12;100.00;63763.75;339905;28;95168;-69
2021/03/14 03:52:45;;;;;;;15.75;2.60;;;;;;;-145.12;100.00;63763.75;340369;28;72120;-72
2021/03/14 03:53:58;;;;;;;9.38;2.17;;;;;;;-145.12;100.00;63763.75;340475;28;95870;-72
2021/03/14 03:55:09;;;;;;;13.38;2.33;;;;;;;-145.12;100.00;63763.75;340413;28;69725;-71
2021/03/14 03:56:21;;;;;;;11.35;2.10;;;;;;;-145.12;100.00;63763.75;340266;28;71645;-75
2021/03/14 03:57:34;;;;;;;18.40;2.76;;;;;;;-145.12;100.00;63763.75;340775;28;94301;-70
2021/03/14 03:58:47;;;;;;;21.08;2.97;;;;;;;-145.12;100.00;63763.75;341732;28;71457;-73
2021/03/14 04:00:02;;;;;;;10.48;2.30;;;;;;;-145.12;100.00;63763.75;341584;28;70704;-69
2021/03/14 04:01:14;;;;;;;11.50;2.42;;;;;;;-145.12;100.00;63763.75;341052;28;71495;-68
2021/03/14 04:02:24;;;;;;;16.20;2.42;;;;;;;-145.12;100.00;63763.75;341781;28;70738;-68
2021/03/14 04:03:45;;;;;;;10.15;2.38;;;;;;;-145.12;100.00;63763.75;340851;28;70309;-69
2021/03/14 04:04:57;;;;;;;17.40;2.95;;;;;;;-145.12;100.00;63763.75;341697;28;71666;-68
2021/03/14 04:06:17;;;;;;;15.95;2.67;;;;;;;-145.12;100.00;63763.75;343045;28;70748;-68
2021/03/14 04:07:31;;;;;;;16.75;2.70;;;;;;;-145.12;100.00;63763.75;341522;28;71702;-67
2021/03/14 04:08:45;;;;;;;15.25;2.58;;;;;;;-145.12;100.00;63763.75;341473;28;70614;-69
2021/03/14 04:09:55;;;;;;;8.68;2.55;;;;;;;-145.12;100.00;63763.75;343015;28;71402;-69
2021/03/14 04:11:10;;;;;;;9.95;1.98;;;;;;;-145.12;100.00;63763.75;341617;28;70832;-68
2021/03/14 04:12:26;;;;;;;13.23;2.20;;;;;;;-145.12;100.00;63763.75;341037;28;94059;-73
2021/03/14 04:13:42;;;;;;;12.88;2.84;;;;;;;-145.12;100.00;63763.75;340574;28;71076;-70
2021/03/14 04:14:56;;;;;;;17.15;2.63;;;;;;;-145.12;100.00;63763.75;340999;28;69741;-69
2021/03/14 04:16:11;;;;;;;13.27;2.70;;;;;;;-145.12;100.00;63763.75;340963;28;70324;-70
2021/03/14 04:17:22;;;;;;;12.13;1.98;;;;;;;-145.12;100.00;63763.75;340448;28;70920;-70
2021/03/14 04:18:33;;;;;;;16.20;2.58;;;;;;;-145.12;100.00;63763.75;340442;28;70452;-69
2021/03/14 04:19:53;;;;;;;10.15;1.83;;;;;;;-145.12;100.00;63763.75;340430;28;71227;-71
2021/03/14 04:21:10;;;;;;;17.33;2.40;;;;;;;-145.12;100.00;63763.75;340466;28;70512;-73
2021/03/14 04:22:22;;;;;;;13.80;2.15;;;;;;;-145.12;100.00;63763.75;340540;28;71176;-69
2021/03/14 04:23:48;;;;;;;16.20;2.70;;;;;;;-145.12;100.00;63763.75;342926;28;68873;-73
2021/03/14 04:25:02;;;;;;;10.90;2.00;;;;;;;-145.12;100.00;63763.75;342824;28;71636;-69
2021/03/14 04:26:20;;;;;;;13.10;2.05;;;;;;;-145.12;100.00;63763.75;340287;28;71544;-69
2021/03/14 04:27:38;;;;;;;12.30;2.53;;;;;;;-145.12;100.00;63763.75;340178;28;73315;-75
2021/03/14 04:28:54;;;;;;;19.65;2.85;;;;;;;-145.12;100.00;63763.75;342042;28;71384;-76
2021/03/14 04:30:06;;;;;;;17.74;2.94;;;;;;;-145.12;100.00;63763.75;340039;28;68783;-70
2021/03/14 04:31:21;;;;;;;16.25;2.80;;;;;;;-145.12;100.00;63763.75;341628;28;70224;-68
2021/03/14 04:32:34;;;;;;;13.02;2.67;;;;;;;-145.12;100.00;63763.75;340182;28;94307;-77
2021/03/14 04:33:44;;;;;;;13.13;2.15;;;;;;;-145.12;100.00;63763.75;340079;28;71587;-76
2021/03/14 04:34:55;;;;;;;14.85;2.50;;;;;;;-145.12;100.00;63763.75;341869;28;71764;-77
2021/03/14 04:36:09;;;;;;;14.10;2.65;;;;;;;-145.12;100.00;63763.75;341505;28;68967;-76
2021/03/14 04:37:20;;;;;;;20.83;2.53;;;;;;;-145.12;100.00;63763.75;341559;28;71565;-77
2021/03/14 04:38:36;;;;;;;16.48;2.63;;;;;;;-145.12;100.00;63763.75;340254;28;71668;-77
2021/03/14 04:39:47;;;;;;;18.68;2.80;;;;;;;-145.12;100.00;63763.75;340770;28;71508;-77
2021/03/14 04:40:58;;;;;;;17.05;2.90;;;;;;;-145.12;100.00;63763.75;341564;28;71782;-77
2021/03/14 04:42:09;;;;;;;10.57;2.42;;;;;;;-145.12;100.00;63763.75;340725;28;71698;-76
2021/03/14 04:43:20;;;;;;;16.92;3.00;;;;;;;-145.12;100.00;63763.75;341969;28;70279;-77
2021/03/14 04:44:30;;;;;;;17.83;2.40;;;;;;;-145.12;100.00;63763.75;341552;28;71727;-77
2021/03/14 04:45:41;;;;;;;14.82;2.72;;;;;;;-145.12;100.00;63763.75;341349;28;70866;-76
2021/03/14 04:46:51;;;;;;;9.18;1.63;;;;;;;-145.12;100.00;63763.75;341845;28;70266;-77
2021/03/14 04:48:01;;;;;;;17.23;2.90;;;;;;;-145.12;100.00;63763.75;340197;28;70483;-77
2021/03/14 04:49:17;;;;;;;18.00;2.63;;;;;;;-145.12;100.00;63763.75;341578;28;70032;-77
2021/03/14 04:50:33;;;;;;;16.63;2.50;;;;;;;-145.12;100.00;63763.75;341393;28;71088;-77
2021/03/14 04:51:45;;;;;;;12.98;2.75;;;;;;;-145.12;100.00;63763.75;340495;28;94288;-77
2021/03/14 04:53:09;;;;;;;12.63;2.55;;;;;;;-145.12;100.00;63763.75;341537;28;70895;-77
2021/03/14 04:54:58;;;;;;;12.45;2.45;;;;;;;-145.12;100.00;63763.75;338769;29;35276;-76
2021/03/14 04:56:09;;;;;;;18.70;3.13;;;;;;;-145.12;100.00;63763.75;337501;29;72172;-76
2021/03/14 04:57:20;;;;;;;15.90;2.33;;;;;;;-145.12;100.00;63763.75;337615;29;71835;-77
2021/03/14 04:58:31;;;;;;;11.18;2.28;;;;;;;-145.12;100.00;63763.75;338863;29;71461;-76
2021/03/14 04:59:48;;;;;;;15.86;2.72;;;;;;;-145.12;100.00;63763.75;338000;28;97632;-76
2021/03/14 05:01:12;;;;;;;17.65;2.85;;;;;;;-145.12;100.00;63763.75;338526;28;92366;-77
2021/03/14 05:02:23;;;;;;;18.58;2.85;;;;;;;-145.12;100.00;63763.75;338618;29;67501;-76
2021/03/14 05:03:34;;;;;;;15.35;2.58;;;;;;;-145.12;100.00;63763.75;338779;29;70661;-77
2021/03/14 05:04:50;;;;;;;9.07;2.20;;;;;;;-145.12;100.00;63763.75;337783;29;69314;-77
2021/03/14 05:06:03;;;;;;;15.50;2.78;;;;;;;-145.12;100.00;63763.75;338927;29;69183;-77
2021/03/14 05:07:15;;;;;;;12.20;1.95;;;;;;;-145.12;100.00;63763.75;340133;28;70743;-77
2021/03/14 05:08:26;;;;;;;16.38;2.60;;;;;;;-145.12;100.00;63763.75;340044;28;71007;-77
2021/03/14 05:09:40;;;;;;;10.23;2.08;;;;;;;-145.12;100.00;63763.75;340259;28;70678;-77
2021/03/14 05:10:50;;;;;;;13.15;1.98;;;;;;;-145.12;100.00;63763.75;339776;28;70536;-76
2021/03/14 05:12:01;;;;;;;14.07;2.30;;;;;;;-145.12;100.00;63763.75;339499;28;70638;-77
2021/03/14 05:13:23;;;;;;;16.56;3.28;;;;;;;-145.12;100.00;63763.75;339413;28;93718;-77
2021/03/14 05:14:35;;;;;;;18.92;2.85;;;;;;;-145.12;100.00;63763.75;338771;28;70710;-76
2021/03/14 05:15:48;;;;;;;19.67;3.50;;;;;;;-145.12;100.00;63763.75;340000;28;71722;-77
2021/03/14 05:17:00;;;;;;;11.05;1.95;;;;;;;-145.12;100.00;63763.75;338894;29;68092;-77
2021/03/14 05:18:11;;;;;;;17.17;2.78;;;;;;;-145.12;100.00;63763.75;338826;29;70483;-77
2021/03/14 05:19:21;;;;;;;14.93;2.40;;;;;;;-145.12;100.00;63763.75;337515;29;71473;-77
2021/03/14 05:20:40;;;;;;;13.85;2.80;;;;;;;-145.12;100.00;63763.75;339033;28;70089;-77
2021/03/14 05:21:50;;;;;;;12.45;2.65;;;;;;;-145.12;100.00;63763.75;338960;29;71311;-77
2021/03/14 05:23:01;;;;;;;10.27;1.60;;;;;;;-145.12;100.00;63763.75;340048;28;69636;-77
2021/03/14 05:24:15;;;;;;;17.45;2.85;;;;;;;-145.12;100.00;63763.75;340174;28;69984;-77
2021/03/14 05:25:27;;;;;;;13.25;2.67;;;;;;;-145.12;100.00;63763.75;338482;29;70071;-76
2021/03/14 05:26:43;;;;;;;18.02;3.13;;;;;;;-145.12;100.00;63763.75;340269;28;71380;-77
2021/03/14 05:28:00;;;;;;;14.85;2.10;;;;;;;-145.12;100.00;63763.75;340194;28;70745;-78
2021/03/14 05:29:12;;;;;;;20.13;3.00;;;;;;;-145.12;100.00;63763.75;341524;28;71143;-77
2021/03/14 05:30:28;;;;;;;19.05;3.10;;;;;;;-145.12;100.00;63763.75;340250;28;70516;-76
2021/03/14 05:31:39;;;;;;;17.13;2.28;;;;;;;-145.12;100.00;63763.75;340144;28;90940;-78
2021/03/14 05:32:51;;;;;;;11.15;2.00;;;;;;;-145.12;100.00;63763.75;340157;28;70248;-78
2021/03/14 05:34:03;;;;;;;10.40;2.58;;;;;;;-145.12;100.00;63763.75;340319;28;70994;-76
2021/03/14 05:35:18;;;;;;;12.15;2.72;;;;;;;-145.12;100.00;63763.75;341548;28;69978;-76
2021/03/14 05:36:30;;;;;;;21.30;3.08;;;;;;;-145.12;100.00;63763.75;340576;28;73906;-77